sensor_id;sensor_type;location;lat;lon;timestamp;temperature;humidity
4840;DHT22;2434;48.486;7.964;2022-10-03T00:00:05;13.40;99.90
4840;DHT22;2434;48.486;7.964;2022-10-03T00:02:47;13.60;99.90
4840;DHT22;2434;48.486;7.964;2022-10-03T00:05:31;13.80;98.70
4840;DHT22;2434;48.486;7.964;2022-10-03T00:08:17;13.60;96.60
4840;DHT22;2434;48.486;7.964;2022-10-03T00:10:57;13.60;97.30
4840;DHT22;2434;48.486;7.964;2022-10-03T00:13:37;13.90;96.40
4840;DHT22;2434;48.486;7.964;2022-10-03T00:16:12;14.20;93.50
4840;DHT22;2434;48.486;7.964;2022-10-03T00:18:51;14.30;91.30
4840;DHT22;2434;48.486;7.964;2022-10-03T00:21:31;14.50;89.90
4840;DHT22;2434;48.486;7.964;2022-10-03T00:24:14;14.60;89.80
4840;DHT22;2434;48.486;7.964;2022-10-03T00:26:50;14.60;88.60
4840;DHT22;2434;48.486;7.964;2022-10-03T00:29:42;14.60;88.10
4840;DHT22;2434;48.486;7.964;2022-10-03T00:32:25;14.70;88.00
4840;DHT22;2434;48.486;7.964;2022-10-03T00:35:04;14.70;88.00
4840;DHT22;2434;48.486;7.964;2022-10-03T00:37:40;14.70;88.00
4840;DHT22;2434;48.486;7.964;2022-10-03T00:40:46;14.70;88.00
4840;DHT22;2434;48.486;7.964;2022-10-03T00:43:47;14.70;88.10
4840;DHT22;2434;48.486;7.964;2022-10-03T00:46:57;14.30;88.90
4840;DHT22;2434;48.486;7.964;2022-10-03T00:49:57;14.00;93.40
4840;DHT22;2434;48.486;7.964;2022-10-03T00:52:45;13.90;94.20
4840;DHT22;2434;48.486;7.964;2022-10-03T00:55:24;14.00;93.70
4840;DHT22;2434;48.486;7.964;2022-10-03T00:58:14;14.10;92.60
4840;DHT22;2434;48.486;7.964;2022-10-03T01:00:49;14.40;91.20
4840;DHT22;2434;48.486;7.964;2022-10-03T01:03:37;14.10;91.40
4840;DHT22;2434;48.486;7.964;2022-10-03T01:06:19;13.80;95.00
4840;DHT22;2434;48.486;7.964;2022-10-03T01:09:14;14.00;94.20
4840;DHT22;2434;48.486;7.964;2022-10-03T01:11:55;13.90;94.60
4840;DHT22;2434;48.486;7.964;2022-10-03T01:14:44;13.70;94.10
4840;DHT22;2434;48.486;7.964;2022-10-03T01:17:21;13.90;94.50
4840;DHT22;2434;48.486;7.964;2022-10-03T01:20:21;13.80;94.60
4840;DHT22;2434;48.486;7.964;2022-10-03T01:23:21;14.10;93.20
4840;DHT22;2434;48.486;7.964;2022-10-03T01:26:02;14.00;91.50
4840;DHT22;2434;48.486;7.964;2022-10-03T01:28:40;14.10;92.70
4840;DHT22;2434;48.486;7.964;2022-10-03T01:31:33;14.30;91.10
4840;DHT22;2434;48.486;7.964;2022-10-03T01:34:12;14.20;90.50
4840;DHT22;2434;48.486;7.964;2022-10-03T01:36:52;14.10;91.20
4840;DHT22;2434;48.486;7.964;2022-10-03T01:39:28;14.10;91.60
4840;DHT22;2434;48.486;7.964;2022-10-03T01:42:07;13.50;92.80
4840;DHT22;2434;48.486;7.964;2022-10-03T01:44:52;13.20;95.80
4840;DHT22;2434;48.486;7.964;2022-10-03T01:47:30;13.10;97.10
4840;DHT22;2434;48.486;7.964;2022-10-03T01:50:05;13.20;97.40
4840;DHT22;2434;48.486;7.964;2022-10-03T01:52:40;13.20;97.80
4840;DHT22;2434;48.486;7.964;2022-10-03T01:55:17;13.10;97.80
4840;DHT22;2434;48.486;7.964;2022-10-03T01:57:53;13.00;97.80
4840;DHT22;2434;48.486;7.964;2022-10-03T02:00:32;12.90;98.10
4840;DHT22;2434;48.486;7.964;2022-10-03T02:03:08;13.10;98.70
4840;DHT22;2434;48.486;7.964;2022-10-03T02:05:45;13.00;97.80
4840;DHT22;2434;48.486;7.964;2022-10-03T02:08:22;13.00;98.20
4840;DHT22;2434;48.486;7.964;2022-10-03T02:10:59;13.00;98.40
4840;DHT22;2434;48.486;7.964;2022-10-03T02:13:39;12.90;97.60
4840;DHT22;2434;48.486;7.964;2022-10-03T02:16:16;12.90;99.20
4840;DHT22;2434;48.486;7.964;2022-10-03T02:18:52;12.90;97.90
4840;DHT22;2434;48.486;7.964;2022-10-03T02:21:24;12.90;97.40
4840;DHT22;2434;48.486;7.964;2022-10-03T02:24:10;12.80;98.40
4840;DHT22;2434;48.486;7.964;2022-10-03T02:27:03;13.00;97.50
4840;DHT22;2434;48.486;7.964;2022-10-03T02:33:11;12.70;97.30
4840;DHT22;2434;48.486;7.964;2022-10-03T02:36:06;12.70;98.80
4840;DHT22;2434;48.486;7.964;2022-10-03T02:39:03;12.90;98.00
4840;DHT22;2434;48.486;7.964;2022-10-03T02:48:01;13.50;93.20
4840;DHT22;2434;48.486;7.964;2022-10-03T03:00:38;13.10;95.30
4840;DHT22;2434;48.486;7.964;2022-10-03T03:03:32;13.20;95.10
4840;DHT22;2434;48.486;7.964;2022-10-03T03:12:48;13.70;91.00
4840;DHT22;2434;48.486;7.964;2022-10-03T03:18:51;13.60;91.10
4840;DHT22;2434;48.486;7.964;2022-10-03T03:21:28;12.90;94.10
4840;DHT22;2434;48.486;7.964;2022-10-03T03:24:18;12.80;97.10
4840;DHT22;2434;48.486;7.964;2022-10-03T03:27:04;12.90;97.70
4840;DHT22;2434;48.486;7.964;2022-10-03T03:29:46;12.90;95.90
4840;DHT22;2434;48.486;7.964;2022-10-03T03:32:29;12.90;95.60
4840;DHT22;2434;48.486;7.964;2022-10-03T03:35:13;12.90;95.70
4840;DHT22;2434;48.486;7.964;2022-10-03T03:37:53;13.20;94.30
4840;DHT22;2434;48.486;7.964;2022-10-03T03:40:31;13.00;94.60
4840;DHT22;2434;48.486;7.964;2022-10-03T03:43:30;12.90;95.60
4840;DHT22;2434;48.486;7.964;2022-10-03T03:46:13;13.00;95.70
4840;DHT22;2434;48.486;7.964;2022-10-03T03:48:58;13.20;93.40
4840;DHT22;2434;48.486;7.964;2022-10-03T03:51:33;13.00;93.80
4840;DHT22;2434;48.486;7.964;2022-10-03T03:54:39;13.10;93.90
4840;DHT22;2434;48.486;7.964;2022-10-03T04:00:13;13.60;89.60
4840;DHT22;2434;48.486;7.964;2022-10-03T04:05:55;13.20;87.60
4840;DHT22;2434;48.486;7.964;2022-10-03T04:08:45;13.00;91.60
4840;DHT22;2434;48.486;7.964;2022-10-03T04:11:22;13.20;90.80
4840;DHT22;2434;48.486;7.964;2022-10-03T04:14:09;13.00;91.00
4840;DHT22;2434;48.486;7.964;2022-10-03T04:16:50;12.90;93.30
4840;DHT22;2434;48.486;7.964;2022-10-03T04:19:47;12.90;93.20
4840;DHT22;2434;48.486;7.964;2022-10-03T04:22:26;12.70;93.70
4840;DHT22;2434;48.486;7.964;2022-10-03T04:25:15;12.50;96.10
4840;DHT22;2434;48.486;7.964;2022-10-03T04:27:59;12.40;97.30
4840;DHT22;2434;48.486;7.964;2022-10-03T04:30:39;12.70;97.20
4840;DHT22;2434;48.486;7.964;2022-10-03T04:33:21;12.90;94.40
4840;DHT22;2434;48.486;7.964;2022-10-03T04:36:23;13.10;93.30
4840;DHT22;2434;48.486;7.964;2022-10-03T04:39:05;13.10;91.40
4840;DHT22;2434;48.486;7.964;2022-10-03T04:41:43;13.30;91.80
4840;DHT22;2434;48.486;7.964;2022-10-03T04:44:25;13.30;90.90
4840;DHT22;2434;48.486;7.964;2022-10-03T04:46:57;13.20;90.10
4840;DHT22;2434;48.486;7.964;2022-10-03T04:49:34;13.30;89.70
4840;DHT22;2434;48.486;7.964;2022-10-03T04:52:14;12.90;90.10
4840;DHT22;2434;48.486;7.964;2022-10-03T04:54:50;12.30;93.70
4840;DHT22;2434;48.486;7.964;2022-10-03T04:57:29;12.10;97.40
4840;DHT22;2434;48.486;7.964;2022-10-03T05:00:04;12.00;98.40
4840;DHT22;2434;48.486;7.964;2022-10-03T05:02:45;11.90;98.50
4840;DHT22;2434;48.486;7.964;2022-10-03T05:05:27;11.90;99.30
4840;DHT22;2434;48.486;7.964;2022-10-03T05:08:11;11.90;99.10
4840;DHT22;2434;48.486;7.964;2022-10-03T05:10:50;11.80;99.40
4840;DHT22;2434;48.486;7.964;2022-10-03T05:13:30;11.80;99.90
4840;DHT22;2434;48.486;7.964;2022-10-03T05:16:05;11.70;99.90
4840;DHT22;2434;48.486;7.964;2022-10-03T05:18:40;11.60;99.90
4840;DHT22;2434;48.486;7.964;2022-10-03T05:21:13;11.50;99.90
4840;DHT22;2434;48.486;7.964;2022-10-03T05:23:50;11.40;99.90
4840;DHT22;2434;48.486;7.964;2022-10-03T05:26:26;11.40;99.60
4840;DHT22;2434;48.486;7.964;2022-10-03T05:29:19;11.30;98.90
4840;DHT22;2434;48.486;7.964;2022-10-03T05:32:12;11.50;99.00
4840;DHT22;2434;48.486;7.964;2022-10-03T05:34:57;11.70;98.10
4840;DHT22;2434;48.486;7.964;2022-10-03T05:37:57;11.40;97.60
4840;DHT22;2434;48.486;7.964;2022-10-03T05:40:28;11.30;98.80
4840;DHT22;2434;48.486;7.964;2022-10-03T05:43:02;11.10;99.90
4840;DHT22;2434;48.486;7.964;2022-10-03T05:45:46;11.10;99.90
4840;DHT22;2434;48.486;7.964;2022-10-03T05:48:26;11.50;99.90
4840;DHT22;2434;48.486;7.964;2022-10-03T05:51:19;11.50;98.10
4840;DHT22;2434;48.486;7.964;2022-10-03T05:57:33;11.40;98.00
4840;DHT22;2434;48.486;7.964;2022-10-03T06:00:13;11.40;98.20
4840;DHT22;2434;48.486;7.964;2022-10-03T06:02:53;11.70;98.20
4840;DHT22;2434;48.486;7.964;2022-10-03T06:05:29;11.70;97.80
4840;DHT22;2434;48.486;7.964;2022-10-03T06:11:10;11.30;99.70
4840;DHT22;2434;48.486;7.964;2022-10-03T06:13:57;11.40;99.90
4840;DHT22;2434;48.486;7.964;2022-10-03T06:16:35;11.80;99.90
4840;DHT22;2434;48.486;7.964;2022-10-03T06:19:15;12.00;98.30
4840;DHT22;2434;48.486;7.964;2022-10-03T06:25:15;12.00;98.50
4840;DHT22;2434;48.486;7.964;2022-10-03T06:28:33;12.10;96.40
4840;DHT22;2434;48.486;7.964;2022-10-03T06:31:20;12.20;96.50
4840;DHT22;2434;48.486;7.964;2022-10-03T06:40:35;12.70;92.20
4840;DHT22;2434;48.486;7.964;2022-10-03T06:46:39;12.80;90.00
4840;DHT22;2434;48.486;7.964;2022-10-03T06:52:58;12.00;95.30
4840;DHT22;2434;48.486;7.964;2022-10-03T06:59:02;12.20;93.20
4840;DHT22;2434;48.486;7.964;2022-10-03T07:01:53;12.20;93.20
4840;DHT22;2434;48.486;7.964;2022-10-03T07:05:01;12.00;95.00
4840;DHT22;2434;48.486;7.964;2022-10-03T07:08:05;12.00;95.00
4840;DHT22;2434;48.486;7.964;2022-10-03T07:10:54;11.80;96.80
4840;DHT22;2434;48.486;7.964;2022-10-03T07:13:50;12.00;97.10
4840;DHT22;2434;48.486;7.964;2022-10-03T07:17:02;12.20;95.60
4840;DHT22;2434;48.486;7.964;2022-10-03T07:19:57;11.90;97.00
4840;DHT22;2434;48.486;7.964;2022-10-03T07:22:46;11.70;98.80
4840;DHT22;2434;48.486;7.964;2022-10-03T07:25:45;11.60;98.50
4840;DHT22;2434;48.486;7.964;2022-10-03T07:31:17;11.40;99.90
4840;DHT22;2434;48.486;7.964;2022-10-03T07:34:10;11.40;99.90
4840;DHT22;2434;48.486;7.964;2022-10-03T07:40:17;11.40;99.90
4840;DHT22;2434;48.486;7.964;2022-10-03T07:43:22;11.30;99.90
4840;DHT22;2434;48.486;7.964;2022-10-03T07:46:32;11.40;99.90
4840;DHT22;2434;48.486;7.964;2022-10-03T07:49:24;11.50;99.90
4840;DHT22;2434;48.486;7.964;2022-10-03T07:52:18;11.80;99.90
4840;DHT22;2434;48.486;7.964;2022-10-03T07:55:20;11.50;99.40
4840;DHT22;2434;48.486;7.964;2022-10-03T08:01:15;11.50;98.90
4840;DHT22;2434;48.486;7.964;2022-10-03T08:04:21;11.50;99.30
4840;DHT22;2434;48.486;7.964;2022-10-03T08:07:08;11.40;99.20
4840;DHT22;2434;48.486;7.964;2022-10-03T08:09:50;11.30;99.20
4840;DHT22;2434;48.486;7.964;2022-10-03T08:15:26;11.60;99.20
4840;DHT22;2434;48.486;7.964;2022-10-03T08:20:58;11.70;98.40
4840;DHT22;2434;48.486;7.964;2022-10-03T08:24:02;11.70;99.00
4840;DHT22;2434;48.486;7.964;2022-10-03T08:30:04;11.50;99.20
4840;DHT22;2434;48.486;7.964;2022-10-03T08:33:10;11.50;99.70
4840;DHT22;2434;48.486;7.964;2022-10-03T08:36:10;11.50;99.90
4840;DHT22;2434;48.486;7.964;2022-10-03T08:39:09;11.50;99.90
4840;DHT22;2434;48.486;7.964;2022-10-03T08:48:37;11.40;99.90
4840;DHT22;2434;48.486;7.964;2022-10-03T08:54:37;11.90;98.80
4840;DHT22;2434;48.486;7.964;2022-10-03T08:57:21;12.00;97.10
4840;DHT22;2434;48.486;7.964;2022-10-03T09:00:19;11.80;98.20
4840;DHT22;2434;48.486;7.964;2022-10-03T09:03:15;11.60;99.30
4840;DHT22;2434;48.486;7.964;2022-10-03T09:06:43;11.60;99.70
4840;DHT22;2434;48.486;7.964;2022-10-03T09:10:00;11.70;99.90
4840;DHT22;2434;48.486;7.964;2022-10-03T09:13:09;11.70;99.90
4840;DHT22;2434;48.486;7.964;2022-10-03T09:18:58;11.70;98.40
4840;DHT22;2434;48.486;7.964;2022-10-03T09:28:28;11.80;99.30
4840;DHT22;2434;48.486;7.964;2022-10-03T09:31:11;12.00;99.50
4840;DHT22;2434;48.486;7.964;2022-10-03T09:34:02;12.10;98.90
4840;DHT22;2434;48.486;7.964;2022-10-03T09:40:22;12.30;97.70
4840;DHT22;2434;48.486;7.964;2022-10-03T09:46:16;12.30;98.00
4840;DHT22;2434;48.486;7.964;2022-10-03T09:49:23;12.20;96.60
4840;DHT22;2434;48.486;7.964;2022-10-03T09:52:07;12.20;97.20
4840;DHT22;2434;48.486;7.964;2022-10-03T09:55:27;12.30;98.00
4840;DHT22;2434;48.486;7.964;2022-10-03T10:01:18;12.30;97.40
4840;DHT22;2434;48.486;7.964;2022-10-03T10:04:30;12.20;97.30
4840;DHT22;2434;48.486;7.964;2022-10-03T10:10:55;12.50;96.50
4840;DHT22;2434;48.486;7.964;2022-10-03T10:16:44;12.70;97.10
4840;DHT22;2434;48.486;7.964;2022-10-03T10:19:40;12.60;95.80
4840;DHT22;2434;48.486;7.964;2022-10-03T10:22:32;12.50;94.90
4840;DHT22;2434;48.486;7.964;2022-10-03T10:25:32;12.50;95.40
4840;DHT22;2434;48.486;7.964;2022-10-03T10:47:03;13.00;92.60
4840;DHT22;2434;48.486;7.964;2022-10-03T10:50:07;13.10;93.90
4840;DHT22;2434;48.486;7.964;2022-10-03T10:56:20;13.10;91.40
4840;DHT22;2434;48.486;7.964;2022-10-03T11:06:00;13.60;92.60
4840;DHT22;2434;48.486;7.964;2022-10-03T11:08:54;13.50;91.00
4840;DHT22;2434;48.486;7.964;2022-10-03T11:28:05;14.00;91.30
4840;DHT22;2434;48.486;7.964;2022-10-03T11:31:05;14.00;84.70
4840;DHT22;2434;48.486;7.964;2022-10-03T11:34:15;14.30;87.30
4840;DHT22;2434;48.486;7.964;2022-10-03T11:37:09;14.20;84.70
4840;DHT22;2434;48.486;7.964;2022-10-03T11:39:48;14.50;88.00
4840;DHT22;2434;48.486;7.964;2022-10-03T11:42:27;14.50;85.20
4840;DHT22;2434;48.486;7.964;2022-10-03T11:45:01;14.60;81.60
4840;DHT22;2434;48.486;7.964;2022-10-03T11:47:41;14.60;81.60
4840;DHT22;2434;48.486;7.964;2022-10-03T11:50:37;14.60;83.10
4840;DHT22;2434;48.486;7.964;2022-10-03T11:53:16;14.60;83.50
4840;DHT22;2434;48.486;7.964;2022-10-03T11:55:48;14.70;85.30
4840;DHT22;2434;48.486;7.964;2022-10-03T11:58:31;14.70;81.70
4840;DHT22;2434;48.486;7.964;2022-10-03T12:01:16;15.00;80.80
4840;DHT22;2434;48.486;7.964;2022-10-03T12:03:52;15.00;80.40
4840;DHT22;2434;48.486;7.964;2022-10-03T12:06:38;14.90;79.00
4840;DHT22;2434;48.486;7.964;2022-10-03T12:09:37;14.80;79.40
4840;DHT22;2434;48.486;7.964;2022-10-03T12:12:15;14.80;81.30
4840;DHT22;2434;48.486;7.964;2022-10-03T12:14:55;14.80;79.00
4840;DHT22;2434;48.486;7.964;2022-10-03T12:17:32;14.80;80.30
4840;DHT22;2434;48.486;7.964;2022-10-03T12:20:04;14.80;80.00
4840;DHT22;2434;48.486;7.964;2022-10-03T12:22:43;15.00;77.20
4840;DHT22;2434;48.486;7.964;2022-10-03T12:25:19;15.10;74.60
4840;DHT22;2434;48.486;7.964;2022-10-03T12:27:57;15.30;77.40
4840;DHT22;2434;48.486;7.964;2022-10-03T12:30:39;15.30;74.20
4840;DHT22;2434;48.486;7.964;2022-10-03T12:33:25;15.40;72.10
4840;DHT22;2434;48.486;7.964;2022-10-03T12:36:02;15.40;74.60
4840;DHT22;2434;48.486;7.964;2022-10-03T12:38:43;15.50;74.90
4840;DHT22;2434;48.486;7.964;2022-10-03T12:41:24;15.40;75.50
4840;DHT22;2434;48.486;7.964;2022-10-03T12:44:08;15.50;76.00
4840;DHT22;2434;48.486;7.964;2022-10-03T12:46:46;15.60;72.80
4840;DHT22;2434;48.486;7.964;2022-10-03T12:49:18;15.50;73.90
4840;DHT22;2434;48.486;7.964;2022-10-03T12:51:54;15.50;76.30
4840;DHT22;2434;48.486;7.964;2022-10-03T12:54:42;15.40;72.00
4840;DHT22;2434;48.486;7.964;2022-10-03T13:00:15;15.30;73.10
4840;DHT22;2434;48.486;7.964;2022-10-03T13:03:02;15.40;72.10
4840;DHT22;2434;48.486;7.964;2022-10-03T13:05:44;15.60;71.90
4840;DHT22;2434;48.486;7.964;2022-10-03T13:08:37;15.60;72.00
4840;DHT22;2434;48.486;7.964;2022-10-03T13:11:19;15.90;71.70
4840;DHT22;2434;48.486;7.964;2022-10-03T13:14:02;16.00;73.50
4840;DHT22;2434;48.486;7.964;2022-10-03T13:16:34;15.80;70.60
4840;DHT22;2434;48.486;7.964;2022-10-03T13:19:11;15.70;71.10
4840;DHT22;2434;48.486;7.964;2022-10-03T13:21:52;15.70;73.30
4840;DHT22;2434;48.486;7.964;2022-10-03T13:24:34;15.70;72.60
4840;DHT22;2434;48.486;7.964;2022-10-03T13:27:13;15.60;71.60
4840;DHT22;2434;48.486;7.964;2022-10-03T13:29:46;15.60;72.00
4840;DHT22;2434;48.486;7.964;2022-10-03T13:32:24;15.50;73.80
4840;DHT22;2434;48.486;7.964;2022-10-03T13:35:16;15.50;71.10
4840;DHT22;2434;48.486;7.964;2022-10-03T13:41:11;15.70;70.20
4840;DHT22;2434;48.486;7.964;2022-10-03T13:43:47;15.80;70.30
4840;DHT22;2434;48.486;7.964;2022-10-03T13:46:20;15.90;71.00
4840;DHT22;2434;48.486;7.964;2022-10-03T13:48:56;15.90;70.70
4840;DHT22;2434;48.486;7.964;2022-10-03T13:51:35;15.90;69.60
4840;DHT22;2434;48.486;7.964;2022-10-03T13:54:16;15.90;70.20
4840;DHT22;2434;48.486;7.964;2022-10-03T13:56:51;16.20;69.90
4840;DHT22;2434;48.486;7.964;2022-10-03T13:59:41;16.20;68.60
4840;DHT22;2434;48.486;7.964;2022-10-03T14:05:44;16.10;71.00
4840;DHT22;2434;48.486;7.964;2022-10-03T14:08:26;16.20;70.00
4840;DHT22;2434;48.486;7.964;2022-10-03T14:11:16;15.90;68.80
4840;DHT22;2434;48.486;7.964;2022-10-03T14:13:58;15.80;68.20
4840;DHT22;2434;48.486;7.964;2022-10-03T14:16:30;15.80;68.00
4840;DHT22;2434;48.486;7.964;2022-10-03T14:19:05;15.80;67.70
4840;DHT22;2434;48.486;7.964;2022-10-03T14:24:47;15.90;66.90
4840;DHT22;2434;48.486;7.964;2022-10-03T14:27:46;15.90;65.10
4840;DHT22;2434;48.486;7.964;2022-10-03T14:30:18;16.00;68.10
4840;DHT22;2434;48.486;7.964;2022-10-03T14:32:57;16.00;67.40
4840;DHT22;2434;48.486;7.964;2022-10-03T14:35:37;16.10;68.90
4840;DHT22;2434;48.486;7.964;2022-10-03T14:38:15;16.10;67.60
4840;DHT22;2434;48.486;7.964;2022-10-03T14:40:48;16.10;68.50
4840;DHT22;2434;48.486;7.964;2022-10-03T14:43:32;16.10;68.90
4840;DHT22;2434;48.486;7.964;2022-10-03T14:46:04;16.10;68.70
4840;DHT22;2434;48.486;7.964;2022-10-03T14:48:35;16.00;68.10
4840;DHT22;2434;48.486;7.964;2022-10-03T14:51:11;15.90;67.20
4840;DHT22;2434;48.486;7.964;2022-10-03T14:53:46;15.90;68.90
4840;DHT22;2434;48.486;7.964;2022-10-03T14:56:18;16.00;66.30
4840;DHT22;2434;48.486;7.964;2022-10-03T14:58:50;16.00;65.10
4840;DHT22;2434;48.486;7.964;2022-10-03T15:01:21;16.00;65.50
4840;DHT22;2434;48.486;7.964;2022-10-03T15:03:57;16.00;65.10
4840;DHT22;2434;48.486;7.964;2022-10-03T15:06:47;15.90;66.20
4840;DHT22;2434;48.486;7.964;2022-10-03T15:09:25;15.90;64.80
4840;DHT22;2434;48.486;7.964;2022-10-03T15:12:03;15.90;64.40
4840;DHT22;2434;48.486;7.964;2022-10-03T15:14:37;15.90;63.60
4840;DHT22;2434;48.486;7.964;2022-10-03T15:17:16;15.90;65.40
4840;DHT22;2434;48.486;7.964;2022-10-03T15:19:49;15.80;63.50
4840;DHT22;2434;48.486;7.964;2022-10-03T15:22:30;15.80;63.20
4840;DHT22;2434;48.486;7.964;2022-10-03T15:25:04;15.80;62.60
4840;DHT22;2434;48.486;7.964;2022-10-03T15:27:33;15.80;63.70
4840;DHT22;2434;48.486;7.964;2022-10-03T15:30:05;15.70;62.90
4840;DHT22;2434;48.486;7.964;2022-10-03T15:32:35;15.70;62.70
4840;DHT22;2434;48.486;7.964;2022-10-03T15:35:05;15.70;63.70
4840;DHT22;2434;48.486;7.964;2022-10-03T15:37:40;15.70;64.50
4840;DHT22;2434;48.486;7.964;2022-10-03T15:40:21;15.70;64.60
4840;DHT22;2434;48.486;7.964;2022-10-03T15:43:00;15.70;65.70
4840;DHT22;2434;48.486;7.964;2022-10-03T15:45:31;15.60;66.20
4840;DHT22;2434;48.486;7.964;2022-10-03T15:48:04;15.60;64.40
4840;DHT22;2434;48.486;7.964;2022-10-03T15:50:38;15.50;64.60
4840;DHT22;2434;48.486;7.964;2022-10-03T15:53:14;15.60;64.60
4840;DHT22;2434;48.486;7.964;2022-10-03T15:56:11;15.50;64.90
4840;DHT22;2434;48.486;7.964;2022-10-03T15:58:45;15.50;64.20
4840;DHT22;2434;48.486;7.964;2022-10-03T16:01:19;15.40;64.30
4840;DHT22;2434;48.486;7.964;2022-10-03T16:03:50;15.40;63.80
4840;DHT22;2434;48.486;7.964;2022-10-03T16:06:21;15.40;63.70
4840;DHT22;2434;48.486;7.964;2022-10-03T16:08:56;15.30;63.10
4840;DHT22;2434;48.486;7.964;2022-10-03T16:11:28;15.20;64.30
4840;DHT22;2434;48.486;7.964;2022-10-03T16:14:14;15.40;69.40
4840;DHT22;2434;48.486;7.964;2022-10-03T16:16:49;15.30;65.80
4840;DHT22;2434;48.486;7.964;2022-10-03T16:19:29;15.20;65.90
4840;DHT22;2434;48.486;7.964;2022-10-03T16:22:09;15.10;66.40
4840;DHT22;2434;48.486;7.964;2022-10-03T16:24:44;15.10;67.40
4840;DHT22;2434;48.486;7.964;2022-10-03T16:27:17;15.00;66.00
4840;DHT22;2434;48.486;7.964;2022-10-03T16:29:53;14.90;66.90
4840;DHT22;2434;48.486;7.964;2022-10-03T16:32:27;14.80;67.20
4840;DHT22;2434;48.486;7.964;2022-10-03T16:34:59;14.80;67.80
4840;DHT22;2434;48.486;7.964;2022-10-03T16:37:31;14.80;67.50
4840;DHT22;2434;48.486;7.964;2022-10-03T16:40:05;14.80;67.80
4840;DHT22;2434;48.486;7.964;2022-10-03T16:42:40;14.60;68.20
4840;DHT22;2434;48.486;7.964;2022-10-03T16:45:19;14.60;68.90
4840;DHT22;2434;48.486;7.964;2022-10-03T16:47:51;14.70;69.00
4840;DHT22;2434;48.486;7.964;2022-10-03T16:50:35;14.60;68.40
4840;DHT22;2434;48.486;7.964;2022-10-03T16:53:08;14.80;69.60
4840;DHT22;2434;48.486;7.964;2022-10-03T16:55:44;15.10;68.10
4840;DHT22;2434;48.486;7.964;2022-10-03T16:58:17;15.30;67.30
4840;DHT22;2434;48.486;7.964;2022-10-03T17:00:54;15.40;67.80
4840;DHT22;2434;48.486;7.964;2022-10-03T17:03:47;15.50;66.90
4840;DHT22;2434;48.486;7.964;2022-10-03T17:06:20;15.60;67.60
4840;DHT22;2434;48.486;7.964;2022-10-03T17:08:51;15.70;68.90
4840;DHT22;2434;48.486;7.964;2022-10-03T17:11:21;15.70;67.80
4840;DHT22;2434;48.486;7.964;2022-10-03T17:13:53;15.70;67.60
4840;DHT22;2434;48.486;7.964;2022-10-03T17:16:29;15.70;68.00
4840;DHT22;2434;48.486;7.964;2022-10-03T17:19:12;15.70;67.70
4840;DHT22;2434;48.486;7.964;2022-10-03T17:21:46;15.60;67.60
4840;DHT22;2434;48.486;7.964;2022-10-03T17:24:37;15.60;67.40
4840;DHT22;2434;48.486;7.964;2022-10-03T17:27:13;15.60;67.30
4840;DHT22;2434;48.486;7.964;2022-10-03T17:29:45;15.50;67.30
4840;DHT22;2434;48.486;7.964;2022-10-03T17:32:20;15.50;67.50
4840;DHT22;2434;48.486;7.964;2022-10-03T17:34:56;15.50;67.70
4840;DHT22;2434;48.486;7.964;2022-10-03T17:37:55;15.40;68.20
4840;DHT22;2434;48.486;7.964;2022-10-03T17:40:47;15.30;67.70
4840;DHT22;2434;48.486;7.964;2022-10-03T17:43:22;15.20;67.50
4840;DHT22;2434;48.486;7.964;2022-10-03T17:46:01;15.20;66.50
4840;DHT22;2434;48.486;7.964;2022-10-03T17:48:37;15.20;67.30
4840;DHT22;2434;48.486;7.964;2022-10-03T17:51:29;15.10;67.20
4840;DHT22;2434;48.486;7.964;2022-10-03T17:54:00;15.00;67.60
4840;DHT22;2434;48.486;7.964;2022-10-03T17:56:31;15.00;68.40
4840;DHT22;2434;48.486;7.964;2022-10-03T17:59:03;15.00;68.30
4840;DHT22;2434;48.486;7.964;2022-10-03T18:01:35;14.90;68.90
4840;DHT22;2434;48.486;7.964;2022-10-03T18:04:14;14.90;69.40
4840;DHT22;2434;48.486;7.964;2022-10-03T18:06:48;14.80;69.40
4840;DHT22;2434;48.486;7.964;2022-10-03T18:09:28;14.80;69.30
4840;DHT22;2434;48.486;7.964;2022-10-03T18:12:10;14.80;68.70
4840;DHT22;2434;48.486;7.964;2022-10-03T18:15:06;14.70;69.10
4840;DHT22;2434;48.486;7.964;2022-10-03T18:17:53;14.70;69.40
4840;DHT22;2434;48.486;7.964;2022-10-03T18:20:35;14.60;69.30
4840;DHT22;2434;48.486;7.964;2022-10-03T18:23:21;14.60;69.60
4840;DHT22;2434;48.486;7.964;2022-10-03T18:26:24;14.60;70.00
4840;DHT22;2434;48.486;7.964;2022-10-03T18:29:00;14.50;69.80
4840;DHT22;2434;48.486;7.964;2022-10-03T18:31:38;14.50;69.80
4840;DHT22;2434;48.486;7.964;2022-10-03T18:34:16;14.50;70.90
4840;DHT22;2434;48.486;7.964;2022-10-03T18:36:47;14.40;70.70
4840;DHT22;2434;48.486;7.964;2022-10-03T18:39:19;14.40;71.80
4840;DHT22;2434;48.486;7.964;2022-10-03T18:41:51;14.30;71.30
4840;DHT22;2434;48.486;7.964;2022-10-03T18:44:25;14.30;71.60
4840;DHT22;2434;48.486;7.964;2022-10-03T18:47:09;14.30;71.10
4840;DHT22;2434;48.486;7.964;2022-10-03T18:49:39;14.30;70.40
4840;DHT22;2434;48.486;7.964;2022-10-03T18:52:11;14.30;71.60
4840;DHT22;2434;48.486;7.964;2022-10-03T18:54:53;14.20;71.00
4840;DHT22;2434;48.486;7.964;2022-10-03T18:57:28;14.30;71.10
4840;DHT22;2434;48.486;7.964;2022-10-03T19:00:03;14.20;70.10
4840;DHT22;2434;48.486;7.964;2022-10-03T19:02:35;14.20;70.10
4840;DHT22;2434;48.486;7.964;2022-10-03T19:05:10;14.10;71.20
4840;DHT22;2434;48.486;7.964;2022-10-03T19:07:45;14.10;72.10
4840;DHT22;2434;48.486;7.964;2022-10-03T19:10:32;14.10;71.80
4840;DHT22;2434;48.486;7.964;2022-10-03T19:13:17;14.00;71.50
4840;DHT22;2434;48.486;7.964;2022-10-03T19:16:14;14.00;71.40
4840;DHT22;2434;48.486;7.964;2022-10-03T19:18:51;14.00;72.00
4840;DHT22;2434;48.486;7.964;2022-10-03T19:21:23;14.00;71.60
4840;DHT22;2434;48.486;7.964;2022-10-03T19:23:57;13.90;72.50
4840;DHT22;2434;48.486;7.964;2022-10-03T19:26:32;13.90;72.60
4840;DHT22;2434;48.486;7.964;2022-10-03T19:29:04;13.90;72.50
4840;DHT22;2434;48.486;7.964;2022-10-03T19:31:37;13.80;72.20
4840;DHT22;2434;48.486;7.964;2022-10-03T19:34:14;13.80;72.00
4840;DHT22;2434;48.486;7.964;2022-10-03T19:36:46;13.80;72.60
4840;DHT22;2434;48.486;7.964;2022-10-03T19:39:16;13.80;72.30
4840;DHT22;2434;48.486;7.964;2022-10-03T19:41:51;13.70;72.80
4840;DHT22;2434;48.486;7.964;2022-10-03T19:44:22;13.70;73.30
4840;DHT22;2434;48.486;7.964;2022-10-03T19:46:58;13.70;72.90
4840;DHT22;2434;48.486;7.964;2022-10-03T19:49:46;13.70;73.10
4840;DHT22;2434;48.486;7.964;2022-10-03T19:52:25;13.70;72.50
4840;DHT22;2434;48.486;7.964;2022-10-03T19:54:59;13.70;72.50
4840;DHT22;2434;48.486;7.964;2022-10-03T19:57:37;13.60;72.10
4840;DHT22;2434;48.486;7.964;2022-10-03T20:00:19;13.60;73.20
4840;DHT22;2434;48.486;7.964;2022-10-03T20:02:53;13.50;72.60
4840;DHT22;2434;48.486;7.964;2022-10-03T20:05:25;13.50;73.10
4840;DHT22;2434;48.486;7.964;2022-10-03T20:07:59;13.50;73.20
4840;DHT22;2434;48.486;7.964;2022-10-03T20:10:44;13.50;72.50
4840;DHT22;2434;48.486;7.964;2022-10-03T20:13:16;13.40;72.70
4840;DHT22;2434;48.486;7.964;2022-10-03T20:15:47;13.40;72.60
4840;DHT22;2434;48.486;7.964;2022-10-03T20:18:21;13.40;72.40
4840;DHT22;2434;48.486;7.964;2022-10-03T20:20:52;13.40;72.60
4840;DHT22;2434;48.486;7.964;2022-10-03T20:23:23;13.30;72.80
4840;DHT22;2434;48.486;7.964;2022-10-03T20:25:56;13.30;73.60
4840;DHT22;2434;48.486;7.964;2022-10-03T20:28:40;13.30;73.00
4840;DHT22;2434;48.486;7.964;2022-10-03T20:31:18;13.30;72.90
4840;DHT22;2434;48.486;7.964;2022-10-03T20:33:49;13.20;72.70